Time;durP1;ratioP1;P1;durP2;ratioP2;P2;SDS_P1;SDS_P2;PMS_P1;PMS_P2;Temp;Humidity;BMP_temperature;BMP_pressure;BME280_temperature;BME280_humidity;BME280_pressure;Samples;Min_cycle;Max_cycle;Signal;HPM_P1;HPM_P2
2022/04/17 00:01:03;;;;;;;1.92;0.70;;;23.00;40.30;;;;;;5026165;28;20255;-44
2022/04/17 00:03:30;;;;;;;1.52;0.73;;;23.00;40.20;;;;;;5026483;28;20430;-44
2022/04/17 00:05:55;;;;;;;1.75;0.70;;;23.00;40.20;;;;;;5026895;28;20182;-43
2022/04/17 00:08:21;;;;;;;2.03;0.95;;;23.00;40.20;;;;;;5026541;28;20037;-43
2022/04/17 00:10:47;;;;;;;2.13;0.80;;;23.00;40.10;;;;;;5026932;28;20112;-43
2022/04/17 00:13:14;;;;;;;1.92;0.75;;;22.90;40.10;;;;;;5025949;28;20034;-44
2022/04/17 00:15:40;;;;;;;1.80;0.90;;;23.00;40.20;;;;;;5046459;28;20499;-44
2022/04/17 00:18:06;;;;;;;2.60;0.90;;;23.00;40.20;;;;;;5045729;28;20328;-44
2022/04/17 00:20:32;;;;;;;1.25;0.68;;;22.90;40.20;;;;;;5046002;28;20116;-43
2022/04/17 00:22:58;;;;;;;2.55;0.93;;;22.90;40.20;;;;;;5044230;28;20553;-44
2022/04/17 00:25:24;;;;;;;2.03;0.85;;;22.90;40.20;;;;;;5045589;28;20033;-44
2022/04/17 00:27:49;;;;;;;1.73;0.80;;;22.90;40.20;;;;;;5042959;28;20421;-44
2022/04/17 00:30:15;;;;;;;1.75;0.88;;;22.90;40.20;;;;;;5043235;28;20037;-44
2022/04/17 00:32:41;;;;;;;2.53;1.10;;;22.90;40.20;;;;;;5044716;28;20434;-44
2022/04/17 00:35:08;;;;;;;2.40;1.00;;;22.90;40.20;;;;;;5045814;28;20029;-43
2022/04/17 00:37:34;;;;;;;2.20;1.00;;;22.90;40.20;;;;;;5044939;28;20504;-44
2022/04/17 00:40:00;;;;;;;2.08;0.85;;;22.90;40.10;;;;;;5043972;28;20032;-44
2022/04/17 00:42:26;;;;;;;1.73;0.73;;;22.90;40.10;;;;;;5026237;28;20036;-44
2022/04/17 00:44:52;;;;;;;1.38;0.70;;;22.90;40.10;;;;;;5038226;28;20029;-43
2022/04/17 00:47:18;;;;;;;1.83;0.80;;;22.90;40.10;;;;;;5044727;28;20086;-44
2022/04/17 00:49:45;;;;;;;1.58;0.80;;;22.90;40.00;;;;;;5045320;28;20017;-43
2022/04/17 00:52:12;;;;;;;2.55;0.70;;;22.90;40.00;;;;;;5045522;28;20023;-44
2022/04/17 00:54:48;;;;;;;2.40;0.80;;;22.90;40.00;;;;;;5044906;28;20027;-44
2022/04/17 00:57:16;;;;;;;2.22;0.80;;;22.90;39.90;;;;;;5044839;28;20033;-44
2022/04/17 00:59:42;;;;;;;1.83;0.90;;;22.90;39.90;;;;;;5045029;28;20036;-43
2022/04/17 01:02:14;;;;;;;1.80;0.80;;;22.90;39.90;;;;;;5045449;28;20111;-44
2022/04/17 01:04:40;;;;;;;1.73;0.70;;;22.80;39.80;;;;;;5044806;28;20029;-44
2022/04/17 01:07:06;;;;;;;2.10;0.90;;;22.90;39.90;;;;;;5044817;28;20259;-44
2022/04/17 01:09:33;;;;;;;1.80;0.80;;;22.90;39.90;;;;;;5045237;28;20025;-44
2022/04/17 01:11:58;;;;;;;1.60;0.80;;;22.90;39.90;;;;;;5027207;28;20057;-44
2022/04/17 01:14:26;;;;;;;1.65;0.77;;;22.90;39.90;;;;;;5033230;28;20137;-44
2022/04/17 01:16:52;;;;;;;2.35;0.90;;;22.90;39.90;;;;;;5045485;28;20033;-44
2022/04/17 01:19:18;;;;;;;1.63;0.75;;;22.80;39.80;;;;;;5045566;28;20384;-43
2022/04/17 01:21:46;;;;;;;2.25;0.98;;;22.80;39.80;;;;;;5045337;28;20021;-44
2022/04/17 01:27:00;;;;;;;2.08;0.90;;;22.90;39.90;;;;;;5045210;28;20086;-44
2022/04/17 01:29:26;;;;;;;1.50;0.70;;;22.80;39.70;;;;;;5033653;28;20040;-44
2022/04/17 01:31:53;;;;;;;1.80;0.75;;;22.80;39.70;;;;;;5024963;28;20521;-44
2022/04/17 01:34:20;;;;;;;2.22;1.08;;;22.80;39.70;;;;;;5024376;28;20029;-44
2022/04/17 01:36:47;;;;;;;2.13;0.98;;;22.80;39.70;;;;;;5025066;28;20470;-44
2022/04/17 01:39:13;;;;;;;1.65;0.82;;;22.80;39.60;;;;;;5024977;28;20032;-44
2022/04/17 01:41:39;;;;;;;1.48;0.80;;;22.80;39.90;;;;;;5024886;28;20033;-44
2022/04/17 01:44:06;;;;;;;1.75;0.85;;;22.80;39.60;;;;;;5029853;28;20105;-44
2022/04/17 01:46:31;;;;;;;1.50;0.70;;;22.80;39.50;;;;;;5044619;28;20037;-43
2022/04/17 01:48:57;;;;;;;2.05;0.80;;;22.80;39.50;;;;;;5044902;28;20025;-44
2022/04/17 01:51:23;;;;;;;1.98;0.80;;;22.80;39.50;;;;;;5045020;28;20025;-43
2022/04/17 01:53:49;;;;;;;2.10;0.98;;;22.80;39.50;;;;;;5044816;28;20021;-43
2022/04/17 01:56:15;;;;;;;1.58;0.70;;;22.80;39.50;;;;;;5044408;28;20055;-44
2022/04/17 01:58:40;;;;;;;2.72;0.90;;;22.80;39.50;;;;;;5045296;28;20103;-43
2022/04/17 02:01:06;;;;;;;1.58;0.80;;;22.80;39.50;;;;;;5044236;28;20116;-44
2022/04/17 02:03:32;;;;;;;2.20;0.90;;;22.80;39.50;;;;;;5044273;28;20037;-44
2022/04/17 02:06:00;;;;;;;1.77;0.80;;;22.80;39.50;;;;;;5044364;28;20462;-44
2022/04/17 02:08:28;;;;;;;2.15;0.80;;;22.80;39.50;;;;;;5044410;28;20719;-44
2022/04/17 02:10:54;;;;;;;2.28;0.93;;;22.80;39.50;;;;;;5035581;28;20037;-44
2022/04/17 02:13:23;;;;;;;1.58;0.70;;;22.80;39.50;;;;;;5024669;28;20032;-43
2022/04/17 02:15:53;;;;;;;1.52;0.70;;;22.70;39.40;;;;;;5042909;28;20033;-44
2022/04/17 02:18:22;;;;;;;1.30;0.65;;;22.70;39.40;;;;;;5044051;28;20477;-43
2022/04/17 02:20:48;;;;;;;1.60;0.88;;;22.70;39.40;;;;;;5043884;28;20116;-44
2022/04/17 02:23:14;;;;;;;1.40;0.73;;;22.70;39.40;;;;;;5043808;28;20104;-44
2022/04/17 02:25:41;;;;;;;1.85;0.70;;;22.70;39.40;;;;;;5044285;28;20037;-44
2022/04/17 02:28:08;;;;;;;1.98;0.88;;;22.70;39.30;;;;;;5044305;28;20381;-43
2022/04/17 02:30:33;;;;;;;1.83;0.80;;;22.70;39.30;;;;;;5036615;28;20025;-44
2022/04/17 02:33:00;;;;;;;2.13;0.98;;;22.80;39.30;;;;;;5044116;28;20026;-44
2022/04/17 02:35:25;;;;;;;1.40;0.80;;;22.70;39.30;;;;;;5044127;28;20029;-43
2022/04/17 02:37:51;;;;;;;2.13;1.00;;;22.70;39.30;;;;;;5043888;28;20071;-43
2022/04/17 02:40:17;;;;;;;1.50;0.68;;;22.70;39.30;;;;;;5040715;28;20398;-45
2022/04/17 02:42:43;;;;;;;1.67;0.70;;;22.70;39.90;;;;;;5024202;28;20059;-44
2022/04/17 02:45:09;;;;;;;2.15;0.77;;;22.70;39.30;;;;;;5036573;28;20116;-44
2022/04/17 02:47:45;;;;;;;2.08;0.73;;;22.70;39.30;;;;;;5044404;28;20087;-44
2022/04/17 02:50:13;;;;;;;2.05;0.70;;;22.70;39.30;;;;;;5043915;28;20067;-44
2022/04/17 02:52:39;;;;;;;1.33;0.60;;;22.70;39.30;;;;;;5043344;28;20313;-44
2022/04/17 02:55:05;;;;;;;1.25;0.70;;;22.70;39.30;;;;;;5043999;28;20685;-44
2022/04/17 02:57:32;;;;;;;1.67;0.80;;;22.70;39.30;;;;;;5044204;28;20075;-44
2022/04/17 02:59:58;;;;;;;2.40;0.80;;;22.70;39.20;;;;;;5043991;28;20029;-44
2022/04/17 03:07:53;;;;;;;1.80;0.80;;;22.70;39.10;;;;;;5043867;28;20146;-44
2022/04/17 03:10:19;;;;;;;1.40;0.77;;;22.70;39.10;;;;;;5040094;28;20060;-44
2022/04/17 03:12:45;;;;;;;1.92;0.88;;;22.70;39.10;;;;;;5027563;28;20022;-43
2022/04/17 03:15:11;;;;;;;1.95;1.00;;;22.70;39.10;;;;;;5028102;28;20030;-44
2022/04/17 03:17:37;;;;;;;1.65;0.90;;;22.60;39.00;;;;;;5027805;28;20033;-44
2022/04/17 03:20:04;;;;;;;1.75;0.82;;;22.60;39.00;;;;;;5027574;28;20116;-44
2022/04/17 03:22:30;;;;;;;1.73;0.77;;;22.60;39.00;;;;;;5027104;28;20523;-43
2022/04/17 03:24:56;;;;;;;1.42;0.73;;;22.60;39.00;;;;;;5027279;28;20354;-43
2022/04/17 03:27:22;;;;;;;1.65;0.68;;;22.60;39.60;;;;;;5027390;28;20484;-43
2022/04/17 03:29:48;;;;;;;1.88;0.85;;;22.60;39.00;;;;;;5035406;28;20029;-44
2022/04/17 03:32:14;;;;;;;1.85;0.80;;;22.60;39.00;;;;;;5038444;28;20080;-44
2022/04/17 03:34:39;;;;;;;1.80;0.65;;;22.60;39.00;;;;;;5026727;28;20436;-44
2022/04/17 03:37:05;;;;;;;2.15;0.90;;;22.60;39.00;;;;;;5027188;28;20026;-43
2022/04/17 03:39:31;;;;;;;1.58;0.82;;;22.60;39.00;;;;;;5027593;28;20025;-44
2022/04/17 03:41:57;;;;;;;1.83;0.80;;;22.60;39.00;;;;;;5027564;28;20049;-44
2022/04/17 03:44:26;;;;;;;1.80;0.70;;;22.60;39.00;;;;;;5031662;28;20412;-44
2022/04/17 03:46:52;;;;;;;1.58;0.75;;;22.60;39.00;;;;;;5046915;28;20194;-44
2022/04/17 03:49:18;;;;;;;1.95;0.90;;;22.60;38.90;;;;;;5046953;28;20029;-43
2022/04/17 03:51:44;;;;;;;2.05;1.17;;;22.60;38.90;;;;;;5046731;28;20485;-44
2022/04/17 03:54:10;;;;;;;2.13;0.93;;;22.60;38.90;;;;;;5046230;28;20078;-44
2022/04/17 03:56:36;;;;;;;1.98;0.73;;;22.60;38.90;;;;;;5046583;28;20025;-44
2022/04/17 03:59:01;;;;;;;1.65;0.88;;;22.60;38.90;;;;;;5044978;28;20067;-43
2022/04/17 04:01:28;;;;;;;1.77;0.75;;;22.60;39.50;;;;;;5046812;28;20778;-44
2022/04/17 04:03:54;;;;;;;1.88;0.90;;;22.60;38.80;;;;;;5045651;28;20116;-43
2022/04/17 04:06:21;;;;;;;1.83;0.82;;;22.60;38.80;;;;;;5046737;28;20104;-43
2022/04/17 04:08:49;;;;;;;1.20;0.63;;;22.50;38.80;;;;;;5046498;28;20091;-44
2022/04/17 04:11:20;;;;;;;1.52;0.77;;;22.60;38.80;;;;;;5034648;28;20037;-44
2022/04/17 04:13:46;;;;;;;1.67;0.73;;;22.60;38.80;;;;;;5025650;28;20112;-44
2022/04/17 04:16:12;;;;;;;1.90;0.88;;;22.50;38.80;;;;;;5045098;28;20120;-44
2022/04/17 04:18:37;;;;;;;1.60;0.75;;;22.60;38.80;;;;;;5046545;28;20029;-44
2022/04/17 04:21:04;;;;;;;2.17;0.90;;;22.60;38.80;;;;;;5046501;28;20029;-43
2022/04/17 04:23:33;;;;;;;2.30;0.80;;;22.50;38.90;;;;;;5044860;28;20804;-44
2022/04/17 04:26:02;;;;;;;2.00;1.05;;;22.50;38.80;;;;;;5045523;28;20036;-44
2022/04/17 04:28:38;;;;;;;1.80;0.80;;;22.50;38.80;;;;;;5046141;28;20017;-44
2022/04/17 04:31:05;;;;;;;2.10;0.90;;;22.50;38.80;;;;;;5045987;28;20065;-43
2022/04/17 04:33:36;;;;;;;1.85;0.90;;;22.50;38.80;;;;;;5026202;28;20025;-43
2022/04/17 04:36:04;;;;;;;1.70;0.68;;;22.50;38.70;;;;;;5026300;28;20030;-43
2022/04/17 04:38:30;;;;;;;1.80;0.80;;;22.50;38.70;;;;;;5025881;28;20034;-43
2022/04/17 04:40:56;;;;;;;1.50;0.75;;;22.50;38.70;;;;;;5025461;28;20028;-45
2022/04/17 04:43:22;;;;;;;1.60;0.82;;;22.50;38.70;;;;;;5025707;28;20029;-44
2022/04/17 04:46:06;;;;;;;2.25;0.80;;;22.50;38.70;;;;;;5040177;28;20539;-44
2022/04/17 04:51:17;;;;;;;2.63;1.00;;;22.50;38.60;;;;;;5045215;28;20517;-43
2022/04/17 04:53:43;;;;;;;2.00;0.90;;;22.50;38.60;;;;;;5045037;28;20035;-44
2022/04/17 04:56:09;;;;;;;1.90;0.93;;;22.50;38.70;;;;;;5045136;28;20043;-43
2022/04/17 04:58:36;;;;;;;2.38;1.02;;;22.50;38.70;;;;;;5045109;28;20493;-44
2022/04/17 05:01:01;;;;;;;1.88;0.80;;;22.50;38.70;;;;;;5044424;28;20508;-43
2022/04/17 05:03:27;;;;;;;2.10;0.90;;;22.40;38.60;;;;;;5045363;28;20028;-44
2022/04/17 05:05:53;;;;;;;1.48;0.73;;;22.50;38.70;;;;;;5044548;28;20068;-43
2022/04/17 05:08:19;;;;;;;1.85;0.80;;;22.40;38.70;;;;;;5039784;28;20230;-43
2022/04/17 05:10:46;;;;;;;1.90;0.85;;;22.40;38.70;;;;;;5043068;28;20032;-43
2022/04/17 05:13:12;;;;;;;1.27;0.70;;;22.40;38.70;;;;;;5043986;28;20028;-43
2022/04/17 05:15:38;;;;;;;3.10;0.90;;;22.40;38.60;;;;;;5041577;28;20021;-43
2022/04/17 05:18:04;;;;;;;1.90;0.75;;;22.40;38.80;;;;;;5042272;28;20036;-43
2022/04/17 05:20:33;;;;;;;1.48;0.80;;;22.50;38.90;;;;;;5041284;28;20204;-43
2022/04/17 05:23:17;;;;;;;3.28;1.05;;;22.50;38.80;;;;;;5043634;28;20021;-44
2022/04/17 05:25:49;;;;;;;2.05;0.80;;;22.50;38.90;;;;;;5043716;28;20213;-44
2022/04/17 05:28:15;;;;;;;2.53;1.00;;;22.50;39.00;;;;;;5041653;28;20078;-43
2022/04/17 05:30:42;;;;;;;2.97;1.20;;;22.50;39.10;;;;;;5042754;28;20079;-44
2022/04/17 05:33:08;;;;;;;2.85;0.90;;;22.50;39.20;;;;;;5043120;28;20078;-44
2022/04/17 05:35:34;;;;;;;2.78;1.27;;;22.60;39.30;;;;;;5041715;28;20072;-44
2022/04/17 05:38:00;;;;;;;2.75;1.10;;;22.60;39.30;;;;;;5033931;28;20143;-44
2022/04/17 05:40:26;;;;;;;2.83;1.10;;;22.60;39.30;;;;;;5030678;28;20109;-44
2022/04/17 05:42:52;;;;;;;2.03;0.88;;;22.70;39.30;;;;;;5022468;28;20029;-45
2022/04/17 05:45:18;;;;;;;2.65;1.13;;;22.70;39.20;;;;;;5041759;28;20514;-45
2022/04/17 05:47:44;;;;;;;2.65;1.08;;;22.70;39.20;;;;;;5043488;28;20024;-45
2022/04/17 05:50:10;;;;;;;2.65;0.80;;;22.70;39.20;;;;;;5042319;28;20024;-46
2022/04/17 05:52:36;;;;;;;2.38;0.90;;;22.70;39.20;;;;;;5043229;28;20182;-45
2022/04/17 05:55:02;;;;;;;2.75;1.00;;;22.70;39.20;;;;;;5042339;28;20498;-43
2022/04/17 05:57:28;;;;;;;2.30;1.00;;;22.80;39.10;;;;;;5025757;28;20140;-46
2022/04/17 05:59:54;;;;;;;4.40;1.10;;;22.80;39.10;;;;;;5022779;28;20040;-45
2022/04/17 06:02:20;;;;;;;1.80;0.90;;;22.80;39.10;;;;;;5023148;28;20044;-46
2022/04/17 06:04:47;;;;;;;3.03;1.10;;;22.80;39.00;;;;;;5023138;28;20033;-45
2022/04/17 06:07:23;;;;;;;2.35;0.95;;;22.80;39.00;;;;;;5023081;28;20032;-45
2022/04/17 06:09:49;;;;;;;2.30;1.10;;;22.80;38.90;;;;;;5023245;28;20049;-44
2022/04/17 06:12:14;;;;;;;2.28;1.10;;;22.90;39.10;;;;;;5022521;28;20107;-45
2022/04/17 06:14:40;;;;;;;1.73;0.80;;;22.90;39.10;;;;;;5022162;28;20029;-45
2022/04/17 06:17:06;;;;;;;2.55;1.30;;;22.90;39.10;;;;;;5023395;28;20029;-45
2022/04/17 06:19:31;;;;;;;2.55;1.10;;;22.90;39.00;;;;;;5023861;28;20575;-45
2022/04/17 06:21:57;;;;;;;2.78;1.00;;;22.90;39.10;;;;;;5023575;28;20586;-45
2022/04/17 06:24:23;;;;;;;2.60;1.13;;;22.90;39.10;;;;;;5023294;28;20483;-45
2022/04/17 06:26:49;;;;;;;3.17;1.05;;;22.90;39.10;;;;;;5023341;28;20083;-44
2022/04/17 06:29:14;;;;;;;2.65;1.00;;;22.90;39.10;;;;;;5033417;28;20025;-46
2022/04/17 06:31:45;;;;;;;2.15;0.95;;;23.00;39.10;;;;;;5031782;28;20037;-45
2022/04/17 06:34:12;;;;;;;2.45;1.00;;;23.00;39.10;;;;;;5032820;28;20053;-45
2022/04/17 06:36:38;;;;;;;2.35;0.70;;;23.00;39.10;;;;;;5030691;28;20032;-44
2022/04/17 06:39:04;;;;;;;2.40;0.98;;;22.90;39.10;;;;;;5028681;28;20087;-45
2022/04/17 06:41:29;;;;;;;2.63;1.00;;;23.00;39.10;;;;;;5035633;28;20472;-46
2022/04/17 06:43:55;;;;;;;2.45;0.90;;;23.00;39.00;;;;;;5039274;28;20016;-44
2022/04/17 06:46:21;;;;;;;2.42;0.90;;;23.00;39.00;;;;;;5043393;28;20056;-46
2022/04/17 06:48:46;;;;;;;3.60;1.10;;;23.00;39.00;;;;;;5046103;28;21057;-45
2022/04/17 06:51:12;;;;;;;2.85;1.38;;;23.00;38.90;;;;;;5046725;28;20108;-45
2022/04/17 06:53:38;;;;;;;2.83;1.15;;;23.00;38.80;;;;;;5045838;28;20024;-45
2022/04/17 06:56:04;;;;;;;2.42;1.10;;;23.00;39.00;;;;;;5047208;28;20025;-46
2022/04/17 06:58:29;;;;;;;2.85;1.00;;;23.00;39.10;;;;;;5029252;28;20086;-45
2022/04/17 07:00:55;;;;;;;3.30;1.48;;;23.00;39.60;;;;;;5027299;28;20494;-45
2022/04/17 07:03:21;;;;;;;2.55;1.00;;;23.00;40.40;;;;;;5030332;28;20716;-44
2022/04/17 07:05:47;;;;;;;2.33;1.00;;;23.00;40.60;;;;;;5045597;28;20417;-45
2022/04/17 07:08:12;;;;;;;2.30;0.88;;;23.00;40.70;;;;;;5034079;28;20451;-45
2022/04/17 07:10:40;;;;;;;1.70;0.75;;;23.10;40.90;;;;;;5026468;28;20064;-46
2022/04/17 07:13:07;;;;;;;2.92;1.02;;;23.00;40.80;;;;;;5040388;28;20031;-45
2022/04/17 07:15:33;;;;;;;2.08;0.80;;;23.10;41.00;;;;;;5044834;28;20056;-45
2022/04/17 07:17:59;;;;;;;2.15;0.93;;;23.10;41.00;;;;;;5024373;28;20087;-44
2022/04/17 07:20:25;;;;;;;3.03;1.25;;;23.10;40.70;;;;;;5026579;28;20029;-45
2022/04/17 07:22:51;;;;;;;2.92;1.38;;;23.10;40.90;;;;;;5027263;28;20564;-44
2022/04/17 07:25:18;;;;;;;2.22;0.88;;;23.10;40.80;;;;;;5026119;28;20037;-45
2022/04/17 07:27:47;;;;;;;2.53;0.90;;;23.10;40.70;;;;;;5026466;28;20037;-45
2022/04/17 07:30:18;;;;;;;4.70;1.35;;;23.10;40.70;;;;;;5028471;28;20040;-45
2022/04/17 07:32:52;;;;;;;3.45;1.40;;;23.10;40.50;;;;;;5029607;28;20452;-45
2022/04/17 07:35:19;;;;;;;2.50;1.02;;;23.10;40.90;;;;;;5037393;28;20040;-44
2022/04/17 07:37:52;;;;;;;1.73;0.75;;;23.10;40.90;;;;;;5031093;28;20029;-44
2022/04/17 07:40:21;;;;;;;1.98;0.80;;;23.10;41.00;;;;;;5044218;28;20036;-43
2022/04/17 07:42:48;;;;;;;2.40;1.02;;;23.10;41.00;;;;;;5037673;28;20025;-45
2022/04/17 07:45:15;;;;;;;5.55;1.13;;;23.10;40.60;;;;;;5044580;28;20032;-45
2022/04/17 07:47:42;;;;;;;1.92;0.85;;;23.10;41.10;;;;;;5045120;28;20473;-45
2022/04/17 07:50:08;;;;;;;2.53;1.15;;;23.10;41.90;;;;;;5044494;28;20021;-45
2022/04/17 07:52:35;;;;;;;2.10;0.98;;;23.10;41.20;;;;;;5046049;28;20511;-51
2022/04/17 07:55:04;;;;;;;2.78;1.00;;;23.10;40.70;;;;;;5043674;28;20017;-45
2022/04/17 07:57:55;;;;;;;3.10;1.00;;;23.10;40.30;;;;;;5045285;28;20033;-45
2022/04/17 08:00:21;;;;;;;2.35;1.10;;;23.20;40.20;;;;;;5038146;28;20024;-45
2022/04/17 08:02:53;;;;;;;2.95;1.20;;;23.20;40.20;;;;;;5044924;28;20037;-45
2022/04/17 08:05:21;;;;;;;2.28;1.02;;;23.10;40.20;;;;;;5041426;28;20481;-43
2022/04/17 08:07:47;;;;;;;2.67;0.90;;;23.10;40.20;;;;;;5028486;28;20195;-43
2022/04/17 08:10:13;;;;;;;3.22;1.17;;;23.20;40.70;;;;;;5024634;28;20071;-44
2022/04/17 08:12:40;;;;;;;2.10;0.98;;;23.20;40.70;;;;;;5027035;28;20029;-44
2022/04/17 08:15:06;;;;;;;2.33;1.05;;;23.10;40.80;;;;;;5025624;28;20105;-44
2022/04/17 08:17:32;;;;;;;3.38;1.30;;;23.20;40.60;;;;;;5024712;28;20048;-44
2022/04/17 08:19:58;;;;;;;2.22;1.00;;;23.20;40.80;;;;;;5025097;28;20030;-44
2022/04/17 08:22:24;;;;;;;5.75;1.30;;;23.20;41.00;;;;;;5024896;28;20112;-44
2022/04/17 08:24:49;;;;;;;2.72;1.00;;;23.20;41.10;;;;;;5024433;28;20040;-45
2022/04/17 08:27:15;;;;;;;2.92;1.05;;;23.20;41.10;;;;;;5033559;28;20025;-46
2022/04/17 08:29:41;;;;;;;2.22;1.00;;;23.20;41.20;;;;;;5042835;28;20044;-44
2022/04/17 08:32:07;;;;;;;4.22;1.35;;;23.20;40.90;;;;;;5026856;28;20507;-44
2022/04/17 08:34:32;;;;;;;4.25;1.10;;;23.20;40.70;;;;;;5038806;28;20033;-44
2022/04/17 08:36:59;;;;;;;3.03;1.25;;;23.20;40.50;;;;;;5043004;28;20017;-44
2022/04/17 08:39:26;;;;;;;3.63;1.17;;;23.20;40.40;;;;;;5040356;28;20064;-44
2022/04/17 08:41:54;;;;;;;3.63;1.10;;;23.20;40.30;;;;;;5042855;28;20052;-44
2022/04/17 08:44:22;;;;;;;3.75;0.90;;;23.20;40.30;;;;;;5043826;28;20614;-44
2022/04/17 08:46:48;;;;;;;3.47;1.10;;;23.20;40.30;;;;;;5040261;28;20034;-43
2022/04/17 08:49:14;;;;;;;3.08;1.00;;;23.20;40.40;;;;;;5044575;28;20439;-43
2022/04/17 08:51:42;;;;;;;2.25;0.93;;;23.20;39.60;;;;;;5044225;28;20724;-43
2022/04/17 08:54:09;;;;;;;2.20;1.05;;;23.20;39.00;;;;;;5044356;28;20025;-43
2022/04/17 08:56:35;;;;;;;1.95;1.00;;;23.20;39.60;;;;;;5043795;28;20038;-43
2022/04/17 08:59:01;;;;;;;2.67;0.90;;;23.20;39.50;;;;;;5038457;28;20044;-43
2022/04/17 09:01:27;;;;;;;3.17;1.27;;;23.20;39.40;;;;;;5042914;28;20065;-43
2022/04/17 09:03:53;;;;;;;2.08;0.95;;;23.20;39.50;;;;;;5044265;28;20041;-43
2022/04/17 09:06:20;;;;;;;2.72;0.82;;;23.20;39.50;;;;;;5038899;28;20082;-44
2022/04/17 09:09:07;;;;;;;2.22;0.95;;;23.20;39.40;;;;;;5025862;28;20096;-46
2022/04/17 09:11:34;;;;;;;2.85;1.10;;;23.20;39.30;;;;;;5029914;28;20037;-46
2022/04/17 09:14:02;;;;;;;4.65;2.00;;;23.20;39.10;;;;;;5044734;28;20642;-46
2022/04/17 09:16:30;;;;;;;6.10;3.13;;;23.20;38.90;;;;;;5043795;28;20060;-45
2022/04/17 09:18:57;;;;;;;6.68;4.10;;;23.20;38.90;;;;;;5044687;28;20092;-45
2022/04/17 09:21:33;;;;;;;9.07;4.60;;;23.20;38.80;;;;;;5036827;28;20048;-45
2022/04/17 09:24:18;;;;;;;7.05;3.45;;;23.20;39.30;;;;;;5022700;28;20029;-45
2022/04/17 09:26:52;;;;;;;4.70;2.67;;;23.20;39.00;;;;;;5034411;28;20666;-45
2022/04/17 09:29:38;;;;;;;5.15;2.80;;;23.20;38.70;;;;;;5044189;28;20037;-45
2022/04/17 09:32:04;;;;;;;4.40;2.10;;;23.20;39.10;;;;;;5024409;28;20068;-44
2022/04/17 09:34:52;;;;;;;3.90;1.67;;;23.20;39.00;;;;;;5022629;28;20101;-48
2022/04/17 09:37:27;;;;;;;3.25;1.65;;;23.20;38.30;;;;;;5023800;28;20025;-45
2022/04/17 09:40:04;;;;;;;3.50;1.20;;;23.20;38.30;;;;;;5024104;28;20192;-45
2022/04/17 09:42:30;;;;;;;3.80;1.40;;;23.30;38.20;;;;;;5023526;28;20611;-44
2022/04/17 09:44:57;;;;;;;3.50;1.50;;;23.30;37.80;;;;;;5024963;28;20125;-45
2022/04/17 09:47:27;;;;;;;3.03;1.40;;;23.30;38.40;;;;;;5043770;28;20032;-45
2022/04/17 09:50:07;;;;;;;4.20;1.10;;;23.30;38.60;;;;;;5043709;28;20021;-45
2022/04/17 09:52:46;;;;;;;2.80;1.05;;;23.30;38.80;;;;;;5042776;28;20056;-45
2022/04/17 09:55:12;;;;;;;2.90;1.02;;;23.30;38.80;;;;;;5044093;28;20112;-44
2022/04/17 09:57:40;;;;;;;3.75;1.08;;;23.30;38.80;;;;;;5025408;28;20061;-45
2022/04/17 10:00:10;;;;;;;3.67;1.10;;;23.40;38.90;;;;;;5032783;28;20113;-45
2022/04/17 10:02:38;;;;;;;2.45;1.00;;;23.40;39.00;;;;;;5030838;28;20735;-45
2022/04/17 10:05:05;;;;;;;2.60;1.00;;;23.40;38.90;;;;;;5023836;28;20041;-45
2022/04/17 10:07:31;;;;;;;2.22;0.95;;;23.40;39.00;;;;;;5023907;28;20393;-45
2022/04/17 10:09:57;;;;;;;3.38;1.25;;;23.40;38.70;;;;;;5024162;28;20048;-44
2022/04/17 10:12:24;;;;;;;2.78;1.20;;;23.40;38.40;;;;;;5024025;28;20026;-45
2022/04/17 10:14:52;;;;;;;1.98;0.85;;;23.40;38.30;;;;;;5028674;28;20036;-46
2022/04/17 10:17:23;;;;;;;2.65;1.20;;;23.40;38.00;;;;;;5032009;28;20033;-45
2022/04/17 10:19:50;;;;;;;2.33;1.10;;;23.40;38.30;;;;;;5033378;28;20028;-45
2022/04/17 10:22:18;;;;;;;3.25;1.08;;;23.40;37.40;;;;;;5037728;28;20086;-45
2022/04/17 10:24:54;;;;;;;2.67;1.00;;;23.40;37.20;;;;;;5047149;28;20025;-45
2022/04/17 10:27:41;;;;;;;3.83;1.17;;;23.40;37.10;;;;;;5043638;28;20029;-45
2022/04/17 10:30:10;;;;;;;3.25;1.30;;;23.30;36.90;;;;;;5027315;28;20735;-47
2022/04/17 10:33:08;;;;;;;3.08;1.10;;;23.30;36.80;;;;;;5032210;28;20033;-45
2022/04/17 10:35:55;;;;;;;1.75;0.95;;;23.30;36.70;;;;;;5027451;28;20045;-45
2022/04/17 10:38:25;;;;;;;2.20;0.82;;;23.30;36.20;;;;;;5027099;28;20083;-46
2022/04/17 10:41:07;;;;;;;3.30;1.40;;;23.30;35.90;;;;;;5027909;28;20105;-45
2022/04/17 10:43:48;;;;;;;2.40;1.10;;;23.20;35.90;;;;;;5027116;28;20536;-45
2022/04/17 10:46:14;;;;;;;2.83;0.75;;;23.30;36.50;;;;;;5038173;28;20039;-45
2022/04/17 10:48:57;;;;;;;3.88;1.52;;;23.20;36.20;;;;;;5047108;28;20501;-45
2022/04/17 10:51:26;;;;;;;3.10;1.10;;;23.20;36.20;;;;;;5038092;28;20183;-45
2022/04/17 10:53:56;;;;;;;3.13;1.20;;;23.20;36.20;;;;;;5047297;28;20033;-45
2022/04/17 10:56:22;;;;;;;2.90;1.10;;;23.20;36.10;;;;;;5038038;28;20033;-46
2022/04/17 10:58:59;;;;;;;3.15;1.05;;;23.20;36.20;;;;;;5026415;28;20025;-44
2022/04/17 11:01:43;;;;;;;3.47;1.20;;;23.20;36.00;;;;;;5025929;28;20025;-45
2022/04/17 11:04:21;;;;;;;2.17;1.05;;;23.20;35.90;;;;;;5026959;28;20037;-44
2022/04/17 11:07:06;;;;;;;1.95;0.73;;;23.20;35.80;;;;;;5027515;28;20044;-44
2022/04/17 11:09:42;;;;;;;2.58;1.00;;;23.20;35.40;;;;;;5027413;28;20045;-44
2022/04/17 11:12:17;;;;;;;2.80;1.20;;;23.20;35.20;;;;;;5027506;28;20033;-44
2022/04/17 11:15:17;;;;;;;2.88;1.30;;;23.10;35.20;;;;;;5026173;28;20037;-45
2022/04/17 11:17:44;;;;;;;2.80;1.25;;;23.10;35.10;;;;;;5025882;28;20430;-45
2022/04/17 11:20:11;;;;;;;4.30;1.60;;;23.10;35.10;;;;;;5026994;28;20497;-45
2022/04/17 11:22:38;;;;;;;2.30;1.02;;;23.10;34.90;;;;;;5026939;28;20057;-46
2022/04/17 11:25:12;;;;;;;4.10;1.30;;;23.10;35.00;;;;;;5037595;28;20032;-45
2022/04/17 11:27:53;;;;;;;5.07;1.45;;;23.10;34.80;;;;;;5042253;28;20032;-44
2022/04/17 11:30:19;;;;;;;2.70;1.30;;;23.10;34.80;;;;;;5043489;28;20026;-45
2022/04/17 11:32:47;;;;;;;3.85;1.27;;;23.10;34.60;;;;;;5045048;28;20041;-44
2022/04/17 11:35:24;;;;;;;2.17;1.00;;;23.10;34.50;;;;;;5045832;28;20040;-45
2022/04/17 11:37:54;;;;;;;3.85;1.20;;;23.10;34.20;;;;;;5039430;28;20032;-45
2022/04/17 11:40:21;;;;;;;1.90;0.90;;;23.10;34.20;;;;;;5025397;28;20025;-44
2022/04/17 11:42:49;;;;;;;3.50;1.55;;;23.10;34.00;;;;;;5025703;28;20592;-44
2022/04/17 11:45:25;;;;;;;3.55;1.23;;;23.10;33.60;;;;;;5028410;28;20112;-44
2022/04/17 11:47:53;;;;;;;2.65;1.20;;;23.10;33.80;;;;;;5045284;28;20629;-43
2022/04/17 11:50:26;;;;;;;5.38;1.55;;;23.20;33.80;;;;;;5044491;28;20025;-44
2022/04/17 11:52:57;;;;;;;3.65;1.30;;;23.10;34.20;;;;;;5045839;28;20397;-49
2022/04/17 11:55:24;;;;;;;3.35;1.60;;;23.20;34.20;;;;;;5045446;28;20078;-44
2022/04/17 11:57:50;;;;;;;3.10;1.10;;;23.20;34.20;;;;;;5026401;28;20022;-44
2022/04/17 12:00:16;;;;;;;3.72;1.50;;;23.20;34.30;;;;;;5026965;28;20488;-44
2022/04/17 12:02:43;;;;;;;3.72;1.38;;;23.20;34.20;;;;;;5025126;28;20034;-43
2022/04/17 12:05:13;;;;;;;3.45;1.27;;;23.20;34.20;;;;;;5025435;28;20060;-44
2022/04/17 12:07:39;;;;;;;3.03;1.20;;;23.20;34.20;;;;;;5025933;28;20056;-44
2022/04/17 12:10:08;;;;;;;2.70;1.10;;;23.20;34.00;;;;;;5044716;28;20029;-46
2022/04/17 12:12:35;;;;;;;2.67;1.00;;;23.30;34.00;;;;;;5044712;28;20059;-45
2022/04/17 12:15:03;;;;;;;3.78;0.95;;;23.30;33.80;;;;;;5043991;28;20240;-45
2022/04/17 12:17:33;;;;;;;2.90;0.98;;;23.30;34.10;;;;;;5044417;28;20049;-45
2022/04/17 12:20:00;;;;;;;2.67;1.10;;;23.30;34.00;;;;;;5044808;28;20017;-45
2022/04/17 12:22:27;;;;;;;1.77;0.88;;;23.40;33.80;;;;;;5044481;28;20120;-46
2022/04/17 12:24:53;;;;;;;2.60;1.15;;;23.40;34.10;;;;;;5044345;28;20029;-45
2022/04/17 12:27:20;;;;;;;1.98;0.88;;;23.40;34.00;;;;;;5044286;28;20558;-46
2022/04/17 12:29:53;;;;;;;1.58;0.80;;;23.40;34.20;;;;;;5044837;28;20040;-45
2022/04/17 12:32:23;;;;;;;2.00;0.80;;;23.40;34.40;;;;;;5040257;28;20560;-45
2022/04/17 12:35:04;;;;;;;5.95;1.20;;;23.50;34.70;;;;;;5043304;28;20025;-46
2022/04/17 12:37:32;;;;;;;3.60;1.00;;;23.50;35.00;;;;;;5039957;28;20029;-45
2022/04/17 12:40:21;;;;;;;3.40;1.00;;;23.50;35.10;;;;;;5042922;28;20519;-45
2022/04/17 12:42:50;;;;;;;9.23;2.72;;;23.60;35.30;;;;;;5042545;28;20444;-45
2022/04/17 12:45:26;;;;;;;16.73;5.38;;;23.60;35.40;;;;;;5046006;28;20029;-45
2022/04/17 12:48:06;;;;;;;19.40;7.38;;;23.60;35.50;;;;;;5045621;28;20028;-44
2022/04/17 12:50:33;;;;;;;27.58;11.18;;;23.60;35.60;;;;;;5045903;28;20083;-45
2022/04/17 12:53:00;;;;;;;29.67;14.93;;;23.70;35.70;;;;;;5045010;28;20029;-45
2022/04/17 12:55:36;;;;;;;40.58;18.08;;;23.70;35.70;;;;;;5045420;28;20029;-45
2022/04/17 12:58:02;;;;;;;32.63;17.65;;;23.70;35.80;;;;;;5044284;28;20021;-45
2022/04/17 13:00:30;;;;;;;39.00;17.90;;;23.80;35.80;;;;;;5045674;28;20044;-45
2022/04/17 13:03:14;;;;;;;41.28;19.10;;;23.80;36.00;;;;;;5045467;28;20260;-44